Portada
METAR-TAF:

METAR-TAF

Aeroports :

Mae Hong Son, Tailàndia

latitud: 19-18N, longitud: 097-50E, altitud: 267 m

Observació

L'informe es va fer fa 11 hores i 22 minuts, a les 12:00 UTC
Temperatura 26°C
Humitat 61%
Pressió 1012 hPa
Visibilitat 10 km o més
Escasses núvols a una alçada de 2500 ft

METAR: VTCH 191200Z /////KT 9999 FEW025 26/18 Q1012

Hora: 06:22 (23:22 UTC)

Pronòstic

L'informe es va fer fa 12 hores i 22 minuts, a les 11:00 UTC
Pronòstic vàlid del 19 a les 12 UTC al 20 a les 12 UTC
Vent 5 kt del Sud/Sud-Est
Visibilitat 10 km o més
Escasses núvols a una alçada de 2500 ft
Evolucionant progressivament
l' 19 a les 21 UTC al 19 a les 23 UTC
Visibilitat: 0800 m
Cel ennuvolat a una alçada de 800 ft
boira
Evolucionant progressivament
l' 20 a les 01 UTC al 20 a les 03 UTC
Visibilitat 10 km o més
Escasses núvols a una alçada de 2500 ft

TAF: VTCH 191100Z 1912/2012 16005KT 9999 FEW025 BECMG 1921/1923 0800 FG BKN008 BECMG 2001/2003 9999 NSW FEW025

Observacions i pronòstics meteorològics de més de 4000 aeroports (METAR i TAF).

Les estacions disponibles són els punts grocs i vermells al mapa.

Posi el ratolí al punt desitjat per veure el nom de l'estació.

Feu clic per veure les observacions i els pronòstics meteorològics.

Per canviar el mapa: feu clic els botons verds amb una creu de color negre per apropar; al botó verd amb un guió per allunyar la imatge; o en les fletxes verdes per a mapes adjacents.


METAR-TAF: